Terminal Aerodrome Forecast
Issued by NWS

Home | Current Version | Previous Version | Text Only | Print | Product List | Glossary On
Versions: 1 2 3 4 5 6 7 8 9 10 11 12 13 14
104
FTUS45 KABQ 252340
TAFSAF
TAF
KSAF 252340Z 2600/2624 VRB06KT P6SM SCT100 BKN180
     FM260100 14010G20KT P6SM VCSH SCT090 BKN120
     FM260500 VRB11G18KT P6SM VCSH BKN090
     FM260800 04006KT P6SM VCSH BKN100
     FM261400 04008KT P6SM SCT100
     FM262030 25009G17KT P6SM VCSH SCT100 BKN140=

USA.gov is the U.S. government's official web portal to all federal, state and local government web resources and services.